sensor_id;sensor_type;location;lat;lon;timestamp;P1;durP1;ratioP1;P2;durP2;ratioP2
58697;SDS011;44475;53.206;-6.106;2024-01-30T00:01:23;5.03;;;1.90;;
58697;SDS011;44475;53.206;-6.106;2024-01-30T00:03:49;14.85;;;1.90;;
58697;SDS011;44475;53.206;-6.106;2024-01-30T00:06:19;5.70;;;1.90;;
58697;SDS011;44475;53.206;-6.106;2024-01-30T00:08:46;4.50;;;1.90;;
58697;SDS011;44475;53.206;-6.106;2024-01-30T00:11:15;7.43;;;2.20;;
58697;SDS011;44475;53.206;-6.106;2024-01-30T00:13:42;5.53;;;1.90;;
58697;SDS011;44475;53.206;-6.106;2024-01-30T00:16:08;5.82;;;1.80;;
58697;SDS011;44475;53.206;-6.106;2024-01-30T00:18:34;9.23;;;2.13;;
58697;SDS011;44475;53.206;-6.106;2024-01-30T00:21:01;11.27;;;2.60;;
58697;SDS011;44475;53.206;-6.106;2024-01-30T00:23:27;3.65;;;1.73;;
58697;SDS011;44475;53.206;-6.106;2024-01-30T00:25:53;10.15;;;2.20;;
58697;SDS011;44475;53.206;-6.106;2024-01-30T00:28:19;9.82;;;2.05;;
58697;SDS011;44475;53.206;-6.106;2024-01-30T00:30:46;22.80;;;4.57;;
58697;SDS011;44475;53.206;-6.106;2024-01-30T00:33:12;7.05;;;2.30;;
58697;SDS011;44475;53.206;-6.106;2024-01-30T00:35:38;3.35;;;1.80;;
58697;SDS011;44475;53.206;-6.106;2024-01-30T00:38:05;7.15;;;1.95;;
58697;SDS011;44475;53.206;-6.106;2024-01-30T00:40:33;3.97;;;2.03;;
58697;SDS011;44475;53.206;-6.106;2024-01-30T00:42:59;4.35;;;2.22;;
58697;SDS011;44475;53.206;-6.106;2024-01-30T00:45:25;4.57;;;1.83;;
58697;SDS011;44475;53.206;-6.106;2024-01-30T00:47:51;4.97;;;2.20;;
58697;SDS011;44475;53.206;-6.106;2024-01-30T00:50:18;4.40;;;2.00;;
58697;SDS011;44475;53.206;-6.106;2024-01-30T00:52:44;3.60;;;1.80;;
58697;SDS011;44475;53.206;-6.106;2024-01-30T00:55:10;3.92;;;1.80;;
58697;SDS011;44475;53.206;-6.106;2024-01-30T00:57:37;3.95;;;2.08;;
58697;SDS011;44475;53.206;-6.106;2024-01-30T01:00:03;4.05;;;1.90;;
58697;SDS011;44475;53.206;-6.106;2024-01-30T01:02:31;3.85;;;1.80;;
58697;SDS011;44475;53.206;-6.106;2024-01-30T01:04:57;4.18;;;2.00;;
58697;SDS011;44475;53.206;-6.106;2024-01-30T01:07:23;5.13;;;2.00;;
58697;SDS011;44475;53.206;-6.106;2024-01-30T01:09:50;4.53;;;1.85;;
58697;SDS011;44475;53.206;-6.106;2024-01-30T01:12:16;3.85;;;2.00;;
58697;SDS011;44475;53.206;-6.106;2024-01-30T01:14:42;3.28;;;1.83;;
58697;SDS011;44475;53.206;-6.106;2024-01-30T01:17:08;3.30;;;1.70;;
58697;SDS011;44475;53.206;-6.106;2024-01-30T01:19:34;3.75;;;1.90;;
58697;SDS011;44475;53.206;-6.106;2024-01-30T01:22:01;2.88;;;1.70;;
58697;SDS011;44475;53.206;-6.106;2024-01-30T01:24:28;4.65;;;1.85;;
58697;SDS011;44475;53.206;-6.106;2024-01-30T01:26:54;4.05;;;1.95;;
58697;SDS011;44475;53.206;-6.106;2024-01-30T01:29:21;4.28;;;1.77;;
58697;SDS011;44475;53.206;-6.106;2024-01-30T01:31:54;6.00;;;2.45;;
58697;SDS011;44475;53.206;-6.106;2024-01-30T01:34:20;3.65;;;1.98;;
58697;SDS011;44475;53.206;-6.106;2024-01-30T01:36:46;2.92;;;1.80;;
58697;SDS011;44475;53.206;-6.106;2024-01-30T01:39:12;3.53;;;1.75;;
58697;SDS011;44475;53.206;-6.106;2024-01-30T01:41:38;3.22;;;1.90;;
58697;SDS011;44475;53.206;-6.106;2024-01-30T01:44:04;3.42;;;1.77;;
58697;SDS011;44475;53.206;-6.106;2024-01-30T01:46:32;4.68;;;2.08;;
58697;SDS011;44475;53.206;-6.106;2024-01-30T01:48:59;3.10;;;1.85;;
58697;SDS011;44475;53.206;-6.106;2024-01-30T01:51:27;2.97;;;1.73;;
58697;SDS011;44475;53.206;-6.106;2024-01-30T01:53:53;5.55;;;2.25;;
58697;SDS011;44475;53.206;-6.106;2024-01-30T01:56:20;5.00;;;1.80;;
58697;SDS011;44475;53.206;-6.106;2024-01-30T01:58:46;3.25;;;1.98;;
58697;SDS011;44475;53.206;-6.106;2024-01-30T02:01:13;2.83;;;1.75;;
58697;SDS011;44475;53.206;-6.106;2024-01-30T02:03:40;3.05;;;1.65;;
58697;SDS011;44475;53.206;-6.106;2024-01-30T02:06:07;9.18;;;1.90;;
58697;SDS011;44475;53.206;-6.106;2024-01-30T02:08:33;3.47;;;1.75;;
58697;SDS011;44475;53.206;-6.106;2024-01-30T02:10:59;4.72;;;1.75;;
58697;SDS011;44475;53.206;-6.106;2024-01-30T02:13:25;3.10;;;1.70;;
58697;SDS011;44475;53.206;-6.106;2024-01-30T02:15:51;3.38;;;1.70;;
58697;SDS011;44475;53.206;-6.106;2024-01-30T02:18:19;3.13;;;1.70;;
58697;SDS011;44475;53.206;-6.106;2024-01-30T02:20:46;5.78;;;1.77;;
58697;SDS011;44475;53.206;-6.106;2024-01-30T02:23:13;4.22;;;1.80;;
58697;SDS011;44475;53.206;-6.106;2024-01-30T02:25:42;3.92;;;1.88;;
58697;SDS011;44475;53.206;-6.106;2024-01-30T02:28:11;3.55;;;1.70;;
58697;SDS011;44475;53.206;-6.106;2024-01-30T02:30:44;2.90;;;1.80;;
58697;SDS011;44475;53.206;-6.106;2024-01-30T02:33:11;3.88;;;1.65;;
58697;SDS011;44475;53.206;-6.106;2024-01-30T02:35:37;4.05;;;1.80;;
58697;SDS011;44475;53.206;-6.106;2024-01-30T02:38:03;3.20;;;2.05;;
58697;SDS011;44475;53.206;-6.106;2024-01-30T02:40:29;3.95;;;1.80;;
58697;SDS011;44475;53.206;-6.106;2024-01-30T02:42:58;3.22;;;1.70;;
58697;SDS011;44475;53.206;-6.106;2024-01-30T02:45:25;4.07;;;1.73;;
58697;SDS011;44475;53.206;-6.106;2024-01-30T02:47:51;4.38;;;1.70;;
58697;SDS011;44475;53.206;-6.106;2024-01-30T02:50:17;3.85;;;1.60;;
58697;SDS011;44475;53.206;-6.106;2024-01-30T02:52:43;4.10;;;1.98;;
58697;SDS011;44475;53.206;-6.106;2024-01-30T02:55:09;4.53;;;1.67;;
58697;SDS011;44475;53.206;-6.106;2024-01-30T02:57:36;4.20;;;1.90;;
58697;SDS011;44475;53.206;-6.106;2024-01-30T03:00:02;4.43;;;1.70;;
58697;SDS011;44475;53.206;-6.106;2024-01-30T03:02:30;5.10;;;1.90;;
58697;SDS011;44475;53.206;-6.106;2024-01-30T03:04:56;4.80;;;1.80;;
58697;SDS011;44475;53.206;-6.106;2024-01-30T03:07:23;6.22;;;1.60;;
58697;SDS011;44475;53.206;-6.106;2024-01-30T03:09:49;3.30;;;1.60;;
58697;SDS011;44475;53.206;-6.106;2024-01-30T03:12:15;4.07;;;1.77;;
58697;SDS011;44475;53.206;-6.106;2024-01-30T03:14:41;4.40;;;1.77;;
58697;SDS011;44475;53.206;-6.106;2024-01-30T03:17:07;3.92;;;1.80;;
58697;SDS011;44475;53.206;-6.106;2024-01-30T03:19:34;2.78;;;1.60;;
58697;SDS011;44475;53.206;-6.106;2024-01-30T03:22:00;4.82;;;1.73;;
58697;SDS011;44475;53.206;-6.106;2024-01-30T03:24:26;3.78;;;1.80;;
58697;SDS011;44475;53.206;-6.106;2024-01-30T03:26:52;4.63;;;2.05;;
58697;SDS011;44475;53.206;-6.106;2024-01-30T03:29:19;2.50;;;1.45;;
58697;SDS011;44475;53.206;-6.106;2024-01-30T03:31:45;2.45;;;1.50;;
58697;SDS011;44475;53.206;-6.106;2024-01-30T03:34:11;3.10;;;1.50;;
58697;SDS011;44475;53.206;-6.106;2024-01-30T03:36:37;2.40;;;1.50;;
58697;SDS011;44475;53.206;-6.106;2024-01-30T03:39:03;2.80;;;1.60;;
58697;SDS011;44475;53.206;-6.106;2024-01-30T03:41:29;3.60;;;1.60;;
58697;SDS011;44475;53.206;-6.106;2024-01-30T03:43:55;4.78;;;1.75;;
58697;SDS011;44475;53.206;-6.106;2024-01-30T03:46:22;1.95;;;1.42;;
58697;SDS011;44475;53.206;-6.106;2024-01-30T03:48:48;3.88;;;1.70;;
58697;SDS011;44475;53.206;-6.106;2024-01-30T03:51:15;2.63;;;1.42;;
58697;SDS011;44475;53.206;-6.106;2024-01-30T03:53:42;2.65;;;1.50;;
58697;SDS011;44475;53.206;-6.106;2024-01-30T03:56:13;4.55;;;1.60;;
58697;SDS011;44475;53.206;-6.106;2024-01-30T03:58:39;3.45;;;1.67;;
58697;SDS011;44475;53.206;-6.106;2024-01-30T04:01:07;3.13;;;1.50;;
58697;SDS011;44475;53.206;-6.106;2024-01-30T04:03:40;3.15;;;1.70;;
58697;SDS011;44475;53.206;-6.106;2024-01-30T04:06:08;2.65;;;1.50;;
58697;SDS011;44475;53.206;-6.106;2024-01-30T04:08:35;3.45;;;1.60;;
58697;SDS011;44475;53.206;-6.106;2024-01-30T04:11:06;2.72;;;1.50;;
58697;SDS011;44475;53.206;-6.106;2024-01-30T04:13:34;3.67;;;1.60;;
58697;SDS011;44475;53.206;-6.106;2024-01-30T04:16:01;2.05;;;1.45;;
58697;SDS011;44475;53.206;-6.106;2024-01-30T04:18:28;3.80;;;1.70;;
58697;SDS011;44475;53.206;-6.106;2024-01-30T04:20:55;3.60;;;1.70;;
58697;SDS011;44475;53.206;-6.106;2024-01-30T04:23:21;3.05;;;1.50;;
58697;SDS011;44475;53.206;-6.106;2024-01-30T04:25:48;2.92;;;1.50;;
58697;SDS011;44475;53.206;-6.106;2024-01-30T04:28:14;3.28;;;1.30;;
58697;SDS011;44475;53.206;-6.106;2024-01-30T04:30:40;3.25;;;1.63;;
58697;SDS011;44475;53.206;-6.106;2024-01-30T04:33:19;6.25;;;1.42;;
58697;SDS011;44475;53.206;-6.106;2024-01-30T04:35:45;4.15;;;1.42;;
58697;SDS011;44475;53.206;-6.106;2024-01-30T04:38:11;3.80;;;1.60;;
58697;SDS011;44475;53.206;-6.106;2024-01-30T04:40:37;3.50;;;1.58;;
58697;SDS011;44475;53.206;-6.106;2024-01-30T04:43:03;3.05;;;1.42;;
58697;SDS011;44475;53.206;-6.106;2024-01-30T04:45:29;2.63;;;1.50;;
58697;SDS011;44475;53.206;-6.106;2024-01-30T04:47:56;2.42;;;1.35;;
58697;SDS011;44475;53.206;-6.106;2024-01-30T04:50:22;3.25;;;1.63;;
58697;SDS011;44475;53.206;-6.106;2024-01-30T04:52:48;2.35;;;1.38;;
58697;SDS011;44475;53.206;-6.106;2024-01-30T04:55:15;3.17;;;1.40;;
58697;SDS011;44475;53.206;-6.106;2024-01-30T04:57:41;1.95;;;1.40;;
58697;SDS011;44475;53.206;-6.106;2024-01-30T05:00:08;2.80;;;1.48;;
58697;SDS011;44475;53.206;-6.106;2024-01-30T05:02:34;5.80;;;1.65;;
58697;SDS011;44475;53.206;-6.106;2024-01-30T05:05:00;5.57;;;2.33;;
58697;SDS011;44475;53.206;-6.106;2024-01-30T05:07:26;7.53;;;1.65;;
58697;SDS011;44475;53.206;-6.106;2024-01-30T05:09:53;2.60;;;1.40;;
58697;SDS011;44475;53.206;-6.106;2024-01-30T05:12:19;3.17;;;1.50;;
58697;SDS011;44475;53.206;-6.106;2024-01-30T05:14:45;3.30;;;1.40;;
58697;SDS011;44475;53.206;-6.106;2024-01-30T05:17:11;3.00;;;1.40;;
58697;SDS011;44475;53.206;-6.106;2024-01-30T05:19:38;3.05;;;1.50;;
58697;SDS011;44475;53.206;-6.106;2024-01-30T05:22:04;1.98;;;1.30;;
58697;SDS011;44475;53.206;-6.106;2024-01-30T05:24:30;3.20;;;1.40;;
58697;SDS011;44475;53.206;-6.106;2024-01-30T05:26:57;3.78;;;1.58;;
58697;SDS011;44475;53.206;-6.106;2024-01-30T05:29:23;2.65;;;1.30;;
58697;SDS011;44475;53.206;-6.106;2024-01-30T05:31:49;3.65;;;1.42;;
58697;SDS011;44475;53.206;-6.106;2024-01-30T05:34:16;2.40;;;1.38;;
58697;SDS011;44475;53.206;-6.106;2024-01-30T05:36:42;1.98;;;1.35;;
58697;SDS011;44475;53.206;-6.106;2024-01-30T05:39:08;2.85;;;1.40;;
58697;SDS011;44475;53.206;-6.106;2024-01-30T05:41:35;2.38;;;1.30;;
58697;SDS011;44475;53.206;-6.106;2024-01-30T05:44:01;2.95;;;1.35;;
58697;SDS011;44475;53.206;-6.106;2024-01-30T05:46:28;2.08;;;1.30;;
58697;SDS011;44475;53.206;-6.106;2024-01-30T05:48:54;2.47;;;1.40;;
58697;SDS011;44475;53.206;-6.106;2024-01-30T05:51:20;3.25;;;1.42;;
58697;SDS011;44475;53.206;-6.106;2024-01-30T05:53:46;2.75;;;1.38;;
58697;SDS011;44475;53.206;-6.106;2024-01-30T05:56:12;3.30;;;1.50;;
58697;SDS011;44475;53.206;-6.106;2024-01-30T05:58:38;2.22;;;1.40;;
58697;SDS011;44475;53.206;-6.106;2024-01-30T06:01:08;3.00;;;1.50;;
58697;SDS011;44475;53.206;-6.106;2024-01-30T06:03:34;1.55;;;1.30;;
58697;SDS011;44475;53.206;-6.106;2024-01-30T06:06:00;1.95;;;1.38;;
58697;SDS011;44475;53.206;-6.106;2024-01-30T06:08:27;3.22;;;1.20;;
58697;SDS011;44475;53.206;-6.106;2024-01-30T06:10:53;2.63;;;1.35;;
58697;SDS011;44475;53.206;-6.106;2024-01-30T06:13:19;1.75;;;1.20;;
58697;SDS011;44475;53.206;-6.106;2024-01-30T06:15:45;3.30;;;1.40;;
58697;SDS011;44475;53.206;-6.106;2024-01-30T06:18:11;2.22;;;1.30;;
58697;SDS011;44475;53.206;-6.106;2024-01-30T06:20:38;2.97;;;1.50;;
58697;SDS011;44475;53.206;-6.106;2024-01-30T06:23:04;2.95;;;1.13;;
58697;SDS011;44475;53.206;-6.106;2024-01-30T06:25:31;2.35;;;1.33;;
58697;SDS011;44475;53.206;-6.106;2024-01-30T06:27:57;1.60;;;1.20;;
58697;SDS011;44475;53.206;-6.106;2024-01-30T06:30:23;1.80;;;1.13;;
58697;SDS011;44475;53.206;-6.106;2024-01-30T06:32:49;2.15;;;1.20;;
58697;SDS011;44475;53.206;-6.106;2024-01-30T06:35:15;1.98;;;1.40;;
58697;SDS011;44475;53.206;-6.106;2024-01-30T06:37:42;2.72;;;1.40;;
58697;SDS011;44475;53.206;-6.106;2024-01-30T06:40:09;1.63;;;1.10;;
58697;SDS011;44475;53.206;-6.106;2024-01-30T06:42:35;2.20;;;1.30;;
58697;SDS011;44475;53.206;-6.106;2024-01-30T06:45:01;2.53;;;1.40;;
58697;SDS011;44475;53.206;-6.106;2024-01-30T06:47:27;3.03;;;1.30;;
58697;SDS011;44475;53.206;-6.106;2024-01-30T06:49:54;2.97;;;1.20;;
58697;SDS011;44475;53.206;-6.106;2024-01-30T06:52:20;2.55;;;1.40;;
58697;SDS011;44475;53.206;-6.106;2024-01-30T06:54:46;1.75;;;1.30;;
58697;SDS011;44475;53.206;-6.106;2024-01-30T06:57:12;2.25;;;1.30;;
58697;SDS011;44475;53.206;-6.106;2024-01-30T06:59:39;3.22;;;1.40;;
58697;SDS011;44475;53.206;-6.106;2024-01-30T07:02:08;3.33;;;1.23;;
58697;SDS011;44475;53.206;-6.106;2024-01-30T07:04:35;2.50;;;1.30;;
58697;SDS011;44475;53.206;-6.106;2024-01-30T07:07:02;1.27;;;1.10;;
58697;SDS011;44475;53.206;-6.106;2024-01-30T07:09:30;1.77;;;1.20;;
58697;SDS011;44475;53.206;-6.106;2024-01-30T07:11:56;2.72;;;1.30;;
58697;SDS011;44475;53.206;-6.106;2024-01-30T07:14:25;3.08;;;1.30;;
58697;SDS011;44475;53.206;-6.106;2024-01-30T07:16:51;1.60;;;1.20;;
58697;SDS011;44475;53.206;-6.106;2024-01-30T07:19:17;2.47;;;1.30;;
58697;SDS011;44475;53.206;-6.106;2024-01-30T07:21:43;2.47;;;1.40;;
58697;SDS011;44475;53.206;-6.106;2024-01-30T07:24:11;3.40;;;1.30;;
58697;SDS011;44475;53.206;-6.106;2024-01-30T07:26:37;3.67;;;1.67;;
58697;SDS011;44475;53.206;-6.106;2024-01-30T07:29:03;3.00;;;1.38;;
58697;SDS011;44475;53.206;-6.106;2024-01-30T07:31:29;1.67;;;1.20;;
58697;SDS011;44475;53.206;-6.106;2024-01-30T07:33:56;1.20;;;1.02;;
58697;SDS011;44475;53.206;-6.106;2024-01-30T07:36:22;3.65;;;1.40;;
58697;SDS011;44475;53.206;-6.106;2024-01-30T07:38:48;2.92;;;1.13;;
58697;SDS011;44475;53.206;-6.106;2024-01-30T07:41:14;2.78;;;1.30;;
58697;SDS011;44475;53.206;-6.106;2024-01-30T07:43:41;1.65;;;1.20;;
58697;SDS011;44475;53.206;-6.106;2024-01-30T07:46:07;2.15;;;1.30;;
58697;SDS011;44475;53.206;-6.106;2024-01-30T07:48:33;1.85;;;1.30;;
58697;SDS011;44475;53.206;-6.106;2024-01-30T07:50:59;2.65;;;1.30;;
58697;SDS011;44475;53.206;-6.106;2024-01-30T07:53:25;2.88;;;1.40;;
58697;SDS011;44475;53.206;-6.106;2024-01-30T07:55:52;1.88;;;1.25;;
58697;SDS011;44475;53.206;-6.106;2024-01-30T07:58:18;4.25;;;1.40;;
58697;SDS011;44475;53.206;-6.106;2024-01-30T08:00:44;3.78;;;1.30;;
58697;SDS011;44475;53.206;-6.106;2024-01-30T08:03:10;2.78;;;1.38;;
58697;SDS011;44475;53.206;-6.106;2024-01-30T08:05:37;2.83;;;1.60;;
58697;SDS011;44475;53.206;-6.106;2024-01-30T08:08:04;3.42;;;1.50;;
58697;SDS011;44475;53.206;-6.106;2024-01-30T08:10:30;1.73;;;1.13;;
58697;SDS011;44475;53.206;-6.106;2024-01-30T08:12:56;3.08;;;1.35;;
58697;SDS011;44475;53.206;-6.106;2024-01-30T08:15:22;5.18;;;1.40;;
58697;SDS011;44475;53.206;-6.106;2024-01-30T08:17:48;2.78;;;1.40;;
58697;SDS011;44475;53.206;-6.106;2024-01-30T08:20:15;2.75;;;1.40;;
58697;SDS011;44475;53.206;-6.106;2024-01-30T08:22:42;2.97;;;1.30;;
58697;SDS011;44475;53.206;-6.106;2024-01-30T08:25:08;2.58;;;1.33;;
58697;SDS011;44475;53.206;-6.106;2024-01-30T08:27:35;3.15;;;1.40;;
58697;SDS011;44475;53.206;-6.106;2024-01-30T08:30:04;3.83;;;1.60;;
58697;SDS011;44475;53.206;-6.106;2024-01-30T08:32:30;1.55;;;1.10;;
58697;SDS011;44475;53.206;-6.106;2024-01-30T08:34:56;2.58;;;1.30;;
58697;SDS011;44475;53.206;-6.106;2024-01-30T08:37:22;10.57;;;1.50;;
58697;SDS011;44475;53.206;-6.106;2024-01-30T08:39:48;1.55;;;1.20;;
58697;SDS011;44475;53.206;-6.106;2024-01-30T08:42:15;2.83;;;1.35;;
58697;SDS011;44475;53.206;-6.106;2024-01-30T08:44:43;3.22;;;1.40;;
58697;SDS011;44475;53.206;-6.106;2024-01-30T08:47:09;3.97;;;1.30;;
58697;SDS011;44475;53.206;-6.106;2024-01-30T08:49:35;1.92;;;1.30;;
58697;SDS011;44475;53.206;-6.106;2024-01-30T08:52:02;2.30;;;1.30;;
58697;SDS011;44475;53.206;-6.106;2024-01-30T08:54:28;2.55;;;1.30;;
58697;SDS011;44475;53.206;-6.106;2024-01-30T08:56:54;2.47;;;1.40;;
58697;SDS011;44475;53.206;-6.106;2024-01-30T08:59:21;2.78;;;1.50;;
58697;SDS011;44475;53.206;-6.106;2024-01-30T09:01:47;2.90;;;1.30;;
58697;SDS011;44475;53.206;-6.106;2024-01-30T09:04:14;2.08;;;1.30;;
58697;SDS011;44475;53.206;-6.106;2024-01-30T09:06:40;3.05;;;1.17;;
58697;SDS011;44475;53.206;-6.106;2024-01-30T09:09:06;2.10;;;1.40;;
58697;SDS011;44475;53.206;-6.106;2024-01-30T09:11:32;2.80;;;1.30;;
58697;SDS011;44475;53.206;-6.106;2024-01-30T09:13:58;1.77;;;1.40;;
58697;SDS011;44475;53.206;-6.106;2024-01-30T09:16:24;2.33;;;1.40;;
58697;SDS011;44475;53.206;-6.106;2024-01-30T09:18:50;3.53;;;1.50;;
58697;SDS011;44475;53.206;-6.106;2024-01-30T09:21:16;1.30;;;1.20;;
58697;SDS011;44475;53.206;-6.106;2024-01-30T09:23:43;1.35;;;1.17;;
58697;SDS011;44475;53.206;-6.106;2024-01-30T09:26:09;2.25;;;1.30;;
58697;SDS011;44475;53.206;-6.106;2024-01-30T09:28:35;2.17;;;1.40;;
58697;SDS011;44475;53.206;-6.106;2024-01-30T09:31:01;2.20;;;1.40;;
58697;SDS011;44475;53.206;-6.106;2024-01-30T09:33:27;2.92;;;1.40;;
58697;SDS011;44475;53.206;-6.106;2024-01-30T09:35:53;2.55;;;1.52;;
58697;SDS011;44475;53.206;-6.106;2024-01-30T09:38:20;2.65;;;1.50;;
58697;SDS011;44475;53.206;-6.106;2024-01-30T09:40:47;2.15;;;1.20;;
58697;SDS011;44475;53.206;-6.106;2024-01-30T09:43:17;1.95;;;1.50;;
58697;SDS011;44475;53.206;-6.106;2024-01-30T09:45:50;2.67;;;1.40;;
58697;SDS011;44475;53.206;-6.106;2024-01-30T09:48:16;2.08;;;1.50;;
58697;SDS011;44475;53.206;-6.106;2024-01-30T09:50:42;2.72;;;1.38;;
58697;SDS011;44475;53.206;-6.106;2024-01-30T09:53:08;3.33;;;1.40;;
58697;SDS011;44475;53.206;-6.106;2024-01-30T09:55:35;1.83;;;1.40;;
58697;SDS011;44475;53.206;-6.106;2024-01-30T09:58:01;2.45;;;1.50;;
58697;SDS011;44475;53.206;-6.106;2024-01-30T10:00:28;2.40;;;1.40;;
58697;SDS011;44475;53.206;-6.106;2024-01-30T10:02:54;6.80;;;1.75;;
58697;SDS011;44475;53.206;-6.106;2024-01-30T10:05:20;1.92;;;1.30;;
58697;SDS011;44475;53.206;-6.106;2024-01-30T10:10:24;3.17;;;1.40;;
58697;SDS011;44475;53.206;-6.106;2024-01-30T10:12:50;4.72;;;1.40;;
58697;SDS011;44475;53.206;-6.106;2024-01-30T10:15:17;3.10;;;1.50;;
58697;SDS011;44475;53.206;-6.106;2024-01-30T10:17:44;7.68;;;1.50;;
58697;SDS011;44475;53.206;-6.106;2024-01-30T10:20:10;2.00;;;1.35;;
58697;SDS011;44475;53.206;-6.106;2024-01-30T10:22:36;1.95;;;1.42;;
58697;SDS011;44475;53.206;-6.106;2024-01-30T10:25:03;3.85;;;1.50;;
58697;SDS011;44475;53.206;-6.106;2024-01-30T10:27:29;2.42;;;1.50;;
58697;SDS011;44475;53.206;-6.106;2024-01-30T10:29:56;4.50;;;1.40;;
58697;SDS011;44475;53.206;-6.106;2024-01-30T10:32:22;3.13;;;1.48;;
58697;SDS011;44475;53.206;-6.106;2024-01-30T10:34:48;3.28;;;1.63;;
58697;SDS011;44475;53.206;-6.106;2024-01-30T10:37:15;3.13;;;1.33;;
58697;SDS011;44475;53.206;-6.106;2024-01-30T10:39:42;1.92;;;1.27;;
58697;SDS011;44475;53.206;-6.106;2024-01-30T10:42:12;4.18;;;1.50;;
58697;SDS011;44475;53.206;-6.106;2024-01-30T10:47:26;3.53;;;1.40;;
58697;SDS011;44475;53.206;-6.106;2024-01-30T10:49:53;2.30;;;1.40;;
58697;SDS011;44475;53.206;-6.106;2024-01-30T10:52:20;3.08;;;1.27;;
58697;SDS011;44475;53.206;-6.106;2024-01-30T10:54:46;3.42;;;1.50;;
58697;SDS011;44475;53.206;-6.106;2024-01-30T10:57:13;2.58;;;1.42;;
58697;SDS011;44475;53.206;-6.106;2024-01-30T10:59:41;2.45;;;1.20;;
58697;SDS011;44475;53.206;-6.106;2024-01-30T11:02:08;2.17;;;1.30;;
58697;SDS011;44475;53.206;-6.106;2024-01-30T11:04:40;1.65;;;1.23;;
58697;SDS011;44475;53.206;-6.106;2024-01-30T11:07:23;3.15;;;1.40;;
58697;SDS011;44475;53.206;-6.106;2024-01-30T11:09:53;1.77;;;1.20;;
58697;SDS011;44475;53.206;-6.106;2024-01-30T11:12:22;2.25;;;1.40;;
58697;SDS011;44475;53.206;-6.106;2024-01-30T11:14:49;3.08;;;1.63;;
58697;SDS011;44475;53.206;-6.106;2024-01-30T11:17:16;2.63;;;1.60;;
58697;SDS011;44475;53.206;-6.106;2024-01-30T11:19:42;2.17;;;1.20;;
58697;SDS011;44475;53.206;-6.106;2024-01-30T11:22:10;2.70;;;1.30;;
58697;SDS011;44475;53.206;-6.106;2024-01-30T11:24:39;1.60;;;1.20;;
58697;SDS011;44475;53.206;-6.106;2024-01-30T11:27:08;1.92;;;1.27;;
58697;SDS011;44475;53.206;-6.106;2024-01-30T11:29:35;1.83;;;1.20;;
58697;SDS011;44475;53.206;-6.106;2024-01-30T11:32:02;2.08;;;1.30;;
58697;SDS011;44475;53.206;-6.106;2024-01-30T11:34:28;1.38;;;1.10;;
58697;SDS011;44475;53.206;-6.106;2024-01-30T11:37:03;3.17;;;1.30;;
58697;SDS011;44475;53.206;-6.106;2024-01-30T11:39:35;3.15;;;1.40;;
58697;SDS011;44475;53.206;-6.106;2024-01-30T11:42:02;3.33;;;1.30;;
58697;SDS011;44475;53.206;-6.106;2024-01-30T11:44:30;3.25;;;1.25;;
58697;SDS011;44475;53.206;-6.106;2024-01-30T11:46:56;2.40;;;1.20;;
58697;SDS011;44475;53.206;-6.106;2024-01-30T11:49:22;2.55;;;1.05;;
58697;SDS011;44475;53.206;-6.106;2024-01-30T11:51:49;1.50;;;1.17;;
58697;SDS011;44475;53.206;-6.106;2024-01-30T11:54:15;1.85;;;1.30;;
58697;SDS011;44475;53.206;-6.106;2024-01-30T11:56:42;1.90;;;1.25;;
58697;SDS011;44475;53.206;-6.106;2024-01-30T11:59:08;1.33;;;1.15;;
58697;SDS011;44475;53.206;-6.106;2024-01-30T12:01:34;3.15;;;1.27;;
58697;SDS011;44475;53.206;-6.106;2024-01-30T12:04:01;2.33;;;1.23;;
58697;SDS011;44475;53.206;-6.106;2024-01-30T12:06:28;1.25;;;1.10;;
58697;SDS011;44475;53.206;-6.106;2024-01-30T12:08:58;1.48;;;1.30;;
58697;SDS011;44475;53.206;-6.106;2024-01-30T12:11:25;2.28;;;1.00;;
58697;SDS011;44475;53.206;-6.106;2024-01-30T12:13:51;1.77;;;1.38;;
58697;SDS011;44475;53.206;-6.106;2024-01-30T12:16:19;1.75;;;1.20;;
58697;SDS011;44475;53.206;-6.106;2024-01-30T12:18:45;1.08;;;1.00;;
58697;SDS011;44475;53.206;-6.106;2024-01-30T12:21:11;2.05;;;1.10;;
58697;SDS011;44475;53.206;-6.106;2024-01-30T12:23:37;1.30;;;1.10;;
58697;SDS011;44475;53.206;-6.106;2024-01-30T12:26:04;2.45;;;1.30;;
58697;SDS011;44475;53.206;-6.106;2024-01-30T12:28:32;1.75;;;1.20;;
58697;SDS011;44475;53.206;-6.106;2024-01-30T12:31:02;1.40;;;1.20;;
58697;SDS011;44475;53.206;-6.106;2024-01-30T12:33:28;1.73;;;1.15;;
58697;SDS011;44475;53.206;-6.106;2024-01-30T12:35:55;1.48;;;1.23;;
58697;SDS011;44475;53.206;-6.106;2024-01-30T12:38:21;1.50;;;1.13;;
58697;SDS011;44475;53.206;-6.106;2024-01-30T12:40:49;1.30;;;1.20;;
58697;SDS011;44475;53.206;-6.106;2024-01-30T12:43:15;1.27;;;1.08;;
58697;SDS011;44475;53.206;-6.106;2024-01-30T12:45:41;1.10;;;1.00;;
58697;SDS011;44475;53.206;-6.106;2024-01-30T12:48:08;1.20;;;1.10;;
58697;SDS011;44475;53.206;-6.106;2024-01-30T12:50:34;1.30;;;1.20;;
58697;SDS011;44475;53.206;-6.106;2024-01-30T12:53:00;1.33;;;1.10;;
58697;SDS011;44475;53.206;-6.106;2024-01-30T12:55:27;1.55;;;1.20;;
58697;SDS011;44475;53.206;-6.106;2024-01-30T12:57:54;1.45;;;1.17;;
58697;SDS011;44475;53.206;-6.106;2024-01-30T13:00:21;1.40;;;1.00;;
58697;SDS011;44475;53.206;-6.106;2024-01-30T13:02:47;1.38;;;1.20;;
58697;SDS011;44475;53.206;-6.106;2024-01-30T13:05:13;1.20;;;1.10;;
58697;SDS011;44475;53.206;-6.106;2024-01-30T13:07:40;2.05;;;1.10;;
58697;SDS011;44475;53.206;-6.106;2024-01-30T13:10:06;1.52;;;1.20;;
58697;SDS011;44475;53.206;-6.106;2024-01-30T13:12:32;1.67;;;1.20;;
58697;SDS011;44475;53.206;-6.106;2024-01-30T13:14:58;1.20;;;1.10;;
58697;SDS011;44475;53.206;-6.106;2024-01-30T13:17:29;2.45;;;1.10;;
58697;SDS011;44475;53.206;-6.106;2024-01-30T13:19:56;1.25;;;1.10;;
58697;SDS011;44475;53.206;-6.106;2024-01-30T13:22:22;2.03;;;1.27;;
58697;SDS011;44475;53.206;-6.106;2024-01-30T13:24:48;1.85;;;1.17;;
58697;SDS011;44475;53.206;-6.106;2024-01-30T13:27:14;1.40;;;1.20;;
58697;SDS011;44475;53.206;-6.106;2024-01-30T13:29:40;1.95;;;1.20;;
58697;SDS011;44475;53.206;-6.106;2024-01-30T13:32:06;1.30;;;1.20;;
58697;SDS011;44475;53.206;-6.106;2024-01-30T13:34:32;1.40;;;1.10;;
58697;SDS011;44475;53.206;-6.106;2024-01-30T13:36:59;1.20;;;1.10;;
58697;SDS011;44475;53.206;-6.106;2024-01-30T13:39:25;1.48;;;1.05;;
58697;SDS011;44475;53.206;-6.106;2024-01-30T13:41:51;1.42;;;1.17;;
58697;SDS011;44475;53.206;-6.106;2024-01-30T13:44:17;2.10;;;1.20;;
58697;SDS011;44475;53.206;-6.106;2024-01-30T13:46:44;1.55;;;1.27;;
58697;SDS011;44475;53.206;-6.106;2024-01-30T13:49:11;1.85;;;1.20;;
58697;SDS011;44475;53.206;-6.106;2024-01-30T13:51:37;1.35;;;1.02;;
58697;SDS011;44475;53.206;-6.106;2024-01-30T13:54:03;1.80;;;1.13;;
58697;SDS011;44475;53.206;-6.106;2024-01-30T13:56:29;2.25;;;1.30;;
58697;SDS011;44475;53.206;-6.106;2024-01-30T13:58:56;1.90;;;1.13;;
58697;SDS011;44475;53.206;-6.106;2024-01-30T14:01:22;1.25;;;1.15;;
58697;SDS011;44475;53.206;-6.106;2024-01-30T14:03:49;2.28;;;1.10;;
58697;SDS011;44475;53.206;-6.106;2024-01-30T14:06:15;1.70;;;1.40;;
58697;SDS011;44475;53.206;-6.106;2024-01-30T14:08:41;1.20;;;1.10;;
58697;SDS011;44475;53.206;-6.106;2024-01-30T14:11:07;1.20;;;1.08;;
58697;SDS011;44475;53.206;-6.106;2024-01-30T14:13:34;1.95;;;1.17;;
58697;SDS011;44475;53.206;-6.106;2024-01-30T14:16:00;0.98;;;0.98;;
58697;SDS011;44475;53.206;-6.106;2024-01-30T14:18:26;1.65;;;1.13;;
58697;SDS011;44475;53.206;-6.106;2024-01-30T14:20:52;1.60;;;1.17;;
58697;SDS011;44475;53.206;-6.106;2024-01-30T14:23:19;1.45;;;1.13;;
58697;SDS011;44475;53.206;-6.106;2024-01-30T14:25:46;2.58;;;1.27;;
58697;SDS011;44475;53.206;-6.106;2024-01-30T14:28:12;1.75;;;1.17;;
58697;SDS011;44475;53.206;-6.106;2024-01-30T14:30:39;1.17;;;1.10;;
58697;SDS011;44475;53.206;-6.106;2024-01-30T14:33:05;1.30;;;1.20;;
58697;SDS011;44475;53.206;-6.106;2024-01-30T14:35:32;2.08;;;1.30;;